This is the latest recevied weather packets stored in our database for station/object XE2RCS-1. If no packets are shown the sender has not sent any weather packets the latest 10 day(s).
| Time | Temp. | Humidity | Pressure | Rain* | Wind** | Luminosity | Snow |
|---|---|---|---|---|---|---|---|
| 1788607906 | 19.44° C | 64% | 1016 hPa | 0 mm | - | - | - |
| 1788607305 | 18.89° C | 65% | 1017 hPa | 0 mm | - | - | - |
| 1788606705 | 18.89° C | 67% | 1017 hPa | 0 mm | - | - | - |
| 1788606104 | 18.89° C | 64% | 1015 hPa | 0 mm | - | - | - |
| 1788605504 | 18.89° C | 64% | 1015 hPa | 0 mm | - | - | - |
| 1788604903 | 18.89° C | 64% | 1015 hPa | 0 mm | - | - | - |
| 1788604303 | 18.89° C | 66% | 1017 hPa | 0 mm | - | - | - |
| 1788603702 | 18.89° C | 66% | 1017 hPa | 0 mm | - | - | - |
| 1788603101 | 18.89° C | 64% | 1017 hPa | 0 mm | - | - | - |
| 1788601770 | 18.89° C | 65% | 1015 hPa | 0 mm | - | - | - |
| 1788601169 | 18.89° C | 64% | 1016 hPa | 0 mm | - | - | - |
| 1788600569 | 19.44° C | 62% | 1018 hPa | 0 mm | - | - | - |
| 1788599968 | 20° C | 59% | 1018 hPa | 0 mm | - | - | - |
| 1788599367 | 20° C | 57% | 1017 hPa | 0 mm | - | - | - |
| 1788598767 | 20° C | 56% | 1015 hPa | 0 mm | - | - | - |
| 1788598166 | 20° C | 55% | 1015 hPa | 0 mm | - | - | - |
| 1788597566 | 20° C | 55% | 1015 hPa | 0 mm | - | - | - |
| 1788596965 | 20° C | 55% | 1017 hPa | 0 mm | - | - | - |
| 1788596364 | 20° C | 56% | 1017 hPa | 0 mm | - | - | - |
| 1788595764 | 17.78° C | 75% | 1014 hPa | 0 mm | - | - | - |
| 1788595163 | 17.78° C | 72% | 1014 hPa | 0 mm | - | - | - |
| 1788594562 | 17.78° C | 72% | 1014 hPa | 0 mm | - | - | - |
| 1788593962 | 17.78° C | 74% | 1014 hPa | 0 mm | - | - | - |
| 1788593361 | 18.33° C | 78% | 1014 hPa | 0 mm | - | - | - |
| 1788592761 | 18.33° C | 78% | 1014 hPa | 0 mm | - | - | - |
* Rain latest hour (hover to see other rain measurements)
** Current wind speed in m/s (hover to see current wind gust speed)